^^
Station Historical Data
Daily Summary for March 7, 2018 Units:  Both    English   Metric
« Previous Day
Next Day »
Daily Weekly Monthly Yearly Custom
  High: Low: Average:
Temperature: TemperatureF °F /  -17.8 °C 62.2 °F /  16.8 °C 67.4 °F /  19.7 °C
Dew Point: DewpointF °F /  -17.8 °C 59.2 °F /  15.1 °C 61 °F /  16.1 °C
Humidity: Humidity% 52% 82%
Wind Speed: WindSpeedMPHmph /  0km/h - 1.4mph /  2.3km/h
Wind Gust: WindSpeedGustMPHmph /  0km/h - -
Wind- - West
Pressure: PressureIn in /  0 hPa 29.71 in /  1006 hPa -
Precipitation: 0.06 in /  1.52 mm    
Historical Graphs
 
 
Tabular Data for March 7, 2018
Time Temperature Dew Point Pressure Wind Wind Speed Wind Gust Humidity Rainfall Rate (Hourly) solar Conditions
TemperatureF °F /  -17.8 °C DewpointF °F /  -17.8 °C PressureInin /  0hPa Calm     Humidity% HourlyPrecipInin /  0mm SolarRadiationWatts/m^2 W/m2 Conditions
00:02 63.3 °F /  17.4 °C 61.9 °F /  16.6 °C 29.80in /  1009hPa Calm     95% 0.02in /  0.51mm 0.0 W/m2
00:07 63.5 °F /  17.5 °C 62.1 °F /  16.7 °C 29.80in /  1009hPa Calm     95% 0.02in /  0.51mm 0.0 W/m2
00:13 63.5 °F /  17.5 °C 62.1 °F /  16.7 °C 29.80in /  1009hPa Calm     95% 0.01in /  0.25mm 0.0 W/m2
00:18 63.5 °F /  17.5 °C 62.1 °F /  16.7 °C 29.80in /  1009hPa Calm     95% 0.01in /  0.25mm 0.0 W/m2
00:23 63.7 °F /  17.6 °C 62.2 °F /  16.8 °C 29.80in /  1009hPa Calm   1.0mph /  1.6km/h 95% 0.01in /  0.25mm 0.0 W/m2
00:28 63.7 °F /  17.6 °C 62.2 °F /  16.8 °C 29.80in /  1009hPa Calm     95% 0.01in /  0.25mm 0.0 W/m2
00:33 63.7 °F /  17.6 °C 62.2 °F /  16.8 °C 29.80in /  1009hPa Calm     95% 0.01in /  0.25mm 0.0 W/m2
00:38 63.7 °F /  17.6 °C 62.2 °F /  16.8 °C 29.80in /  1009hPa Calm   1.0mph /  1.6km/h 95% 0.01in /  0.25mm 0.0 W/m2
00:43 63.7 °F /  17.6 °C 62.2 °F /  16.8 °C 29.80in /  1009hPa Calm   2.0mph /  3.2km/h 95% 0.01in /  0.25mm 0.0 W/m2
00:48 63.7 °F /  17.6 °C 62.2 °F /  16.8 °C 29.80in /  1009hPa West 0.9mph /  1.4km/h 1.0mph /  1.6km/h 95% 0.02in /  0.51mm 0.0 W/m2
00:53 63.9 °F /  17.7 °C 62.4 °F /  16.9 °C 29.80in /  1009hPa West 0.9mph /  1.4km/h 1.0mph /  1.6km/h 95% 0.02in /  0.51mm 0.0 W/m2
00:59 63.7 °F /  17.6 °C 62.2 °F /  16.8 °C 29.80in /  1009hPa Calm   1.0mph /  1.6km/h 95% 0.01in /  0.25mm 0.0 W/m2
01:04 63.7 °F /  17.6 °C 62.2 °F /  16.8 °C 29.80in /  1009hPa Calm     95% 0.01in /  0.25mm 0.0 W/m2
01:09 63.7 °F /  17.6 °C 62.2 °F /  16.8 °C 29.80in /  1009hPa Calm     95% 0.01in /  0.25mm 0.0 W/m2
01:14 63.7 °F /  17.6 °C 62.2 °F /  16.8 °C 29.80in /  1009hPa Calm     95% 0.01in /  0.25mm 0.0 W/m2
01:17 63.7 °F /  17.6 °C 62.2 °F /  16.8 °C 29.79in /  1008.7hPa Calm     95% 0.01in /  0.25mm 0.0 W/m2
01:22 63.7 °F /  17.6 °C 62.2 °F /  16.8 °C 29.80in /  1009hPa Calm     95% 0.01in /  0.25mm 0.0 W/m2
01:27 63.7 °F /  17.6 °C 62.2 °F /  16.8 °C 29.79in /  1008.7hPa Calm     95% 0.01in /  0.25mm 0.0 W/m2
01:32 63.7 °F /  17.6 °C 62.2 °F /  16.8 °C 29.79in /  1008.7hPa Calm     95% 0.01in /  0.25mm 0.0 W/m2
01:37 63.7 °F /  17.6 °C 62.2 °F /  16.8 °C 29.79in /  1008.7hPa Calm     95% 0.01in /  0.25mm 0.0 W/m2
01:42 63.5 °F /  17.5 °C 62.1 °F /  16.7 °C 29.79in /  1008.7hPa Calm   1.0mph /  1.6km/h 95% 0.01in /  0.25mm 0.0 W/m2
01:48 63.3 °F /  17.4 °C 61.9 °F /  16.6 °C 29.79in /  1008.7hPa Calm     95% 0.00in /  0mm 0.0 W/m2
01:53 63.3 °F /  17.4 °C 61.9 °F /  16.6 °C 29.78in /  1008.4hPa Calm     95% 0.00in /  0mm 0.0 W/m2
01:58 63.1 °F /  17.3 °C 61.7 °F /  16.5 °C 29.79in /  1008.7hPa Calm     95% 0.00in /  0mm 0.0 W/m2
02:03 63.1 °F /  17.3 °C 61.7 °F /  16.5 °C 29.78in /  1008.4hPa Calm     95% 0.00in /  0mm 0.0 W/m2
02:08 63.1 °F /  17.3 °C 61.7 °F /  16.5 °C 29.78in /  1008.4hPa Calm     95% 0.00in /  0mm 0.0 W/m2
02:13 63.1 °F /  17.3 °C 61.7 °F /  16.5 °C 29.78in /  1008.4hPa Calm     95% 0.00in /  0mm 0.0 W/m2
02:18 63.1 °F /  17.3 °C 61.7 °F /  16.5 °C 29.78in /  1008.4hPa Calm     95% 0.00in /  0mm 0.0 W/m2
02:23 63.1 °F /  17.3 °C 61.7 °F /  16.5 °C 29.78in /  1008.4hPa Calm     95% 0.00in /  0mm 0.0 W/m2
02:29 63.1 °F /  17.3 °C 61.7 °F /  16.5 °C 29.78in /  1008.4hPa Calm     95% 0.00in /  0mm 0.0 W/m2
02:34 63.1 °F /  17.3 °C 61.7 °F /  16.5 °C 29.78in /  1008.4hPa Calm     95% 0.00in /  0mm 0.0 W/m2
02:39 63.1 °F /  17.3 °C 61.7 °F /  16.5 °C 29.78in /  1008.4hPa Calm     95% 0.00in /  0mm 0.0 W/m2
02:44 63.1 °F /  17.3 °C 61.7 °F /  16.5 °C 29.78in /  1008.4hPa Calm     95% 0.00in /  0mm 0.0 W/m2
02:49 63.1 °F /  17.3 °C 61.7 °F /  16.5 °C 29.78in /  1008.4hPa Calm     95% 0.00in /  0mm 0.0 W/m2
02:54 63.1 °F /  17.3 °C 61.7 °F /  16.5 °C 29.78in /  1008.4hPa Calm     95% 0.00in /  0mm 0.0 W/m2
02:59 63.1 °F /  17.3 °C 61.7 °F /  16.5 °C 29.78in /  1008.4hPa Calm     95% 0.00in /  0mm 0.0 W/m2
03:04 63.3 °F /  17.4 °C 61.9 °F /  16.6 °C 29.78in /  1008.4hPa Calm     95% 0.00in /  0mm 0.0 W/m2
03:09 63.3 °F /  17.4 °C 61.9 °F /  16.6 °C 29.78in /  1008.4hPa Calm   3.0mph /  4.8km/h 95% 0.00in /  0mm 0.0 W/m2
03:14 63.3 °F /  17.4 °C 62.2 °F /  16.8 °C 29.78in /  1008.4hPa NW 2.9mph /  4.7km/h 4.0mph /  6.4km/h 96% 0.00in /  0mm 0.0 W/m2
03:20 63.1 °F /  17.3 °C 61.7 °F /  16.5 °C 29.78in /  1008.4hPa North 4.9mph /  7.9km/h 5.0mph /  8km/h 95% 0.00in /  0mm 0.0 W/m2
03:25 63.0 °F /  17.2 °C 61.5 °F /  16.4 °C 29.78in /  1008.4hPa North 4.0mph /  6.4km/h 4.0mph /  6.4km/h 95% 0.00in /  0mm 0.0 W/m2
03:30 63.0 °F /  17.2 °C 61.5 °F /  16.4 °C 29.78in /  1008.4hPa Calm   4.0mph /  6.4km/h 95% 0.00in /  0mm 0.0 W/m2
03:35 62.8 °F /  17.1 °C 61.3 °F /  16.3 °C 29.77in /  1008hPa Calm   3.0mph /  4.8km/h 95% 0.00in /  0mm 0.0 W/m2
03:41 62.8 °F /  17.1 °C 61.3 °F /  16.3 °C 29.77in /  1008hPa NNW 2.9mph /  4.7km/h 3.0mph /  4.8km/h 95% 0.00in /  0mm 0.0 W/m2
03:46 62.8 °F /  17.1 °C 61.3 °F /  16.3 °C 29.77in /  1008hPa NNW 0.9mph /  1.4km/h 4.0mph /  6.4km/h 95% 0.00in /  0mm 0.0 W/m2
03:51 62.8 °F /  17.1 °C 61.3 °F /  16.3 °C 29.78in /  1008.4hPa Calm     95% 0.00in /  0mm 0.0 W/m2
03:56 62.8 °F /  17.1 °C 61.3 °F /  16.3 °C 29.78in /  1008.4hPa Calm   1.0mph /  1.6km/h 95% 0.00in /  0mm 0.0 W/m2
04:01 62.8 °F /  17.1 °C 61.3 °F /  16.3 °C 29.78in /  1008.4hPa Calm     95% 0.00in /  0mm 0.0 W/m2
04:06 62.8 °F /  17.1 °C 61.3 °F /  16.3 °C 29.78in /  1008.4hPa Calm     95% 0.00in /  0mm 0.0 W/m2
04:11 62.8 °F /  17.1 °C 61.3 °F /  16.3 °C 29.78in /  1008.4hPa Calm   2.0mph /  3.2km/h 95% 0.00in /  0mm 0.0 W/m2
04:17 62.8 °F /  17.1 °C 61.3 °F /  16.3 °C 29.78in /  1008.4hPa NNW 0.9mph /  1.4km/h 1.0mph /  1.6km/h 95% 0.00in /  0mm 0.0 W/m2
04:22 62.8 °F /  17.1 °C 61.3 °F /  16.3 °C 29.78in /  1008.4hPa NNW 2.0mph /  3.2km/h 2.0mph /  3.2km/h 95% 0.00in /  0mm 0.0 W/m2
04:27 62.6 °F /  17 °C 61.2 °F /  16.2 °C 29.78in /  1008.4hPa Calm   1.0mph /  1.6km/h 95% 0.00in /  0mm 0.0 W/m2
04:32 62.6 °F /  17 °C 61.2 °F /  16.2 °C 29.78in /  1008.4hPa Calm   1.0mph /  1.6km/h 95% 0.00in /  0mm 0.0 W/m2
04:37 62.4 °F /  16.9 °C 61.0 °F /  16.1 °C 29.78in /  1008.4hPa Calm   1.0mph /  1.6km/h 95% 0.00in /  0mm 0.0 W/m2
04:42 62.4 °F /  16.9 °C 61.0 °F /  16.1 °C 29.78in /  1008.4hPa Calm     95% 0.00in /  0mm 0.0 W/m2
04:47 62.4 °F /  16.9 °C 61.0 °F /  16.1 °C 29.78in /  1008.4hPa Calm     95% 0.00in /  0mm 0.0 W/m2
04:52 62.4 °F /  16.9 °C 61.0 °F /  16.1 °C 29.78in /  1008.4hPa Calm     95% 0.00in /  0mm 0.0 W/m2
04:57 62.4 °F /  16.9 °C 61.0 °F /  16.1 °C 29.78in /  1008.4hPa Calm     95% 0.00in /  0mm 0.0 W/m2
05:03 62.4 °F /  16.9 °C 61.0 °F /  16.1 °C 29.78in /  1008.4hPa Calm     95% 0.00in /  0mm 0.0 W/m2
05:08 62.4 °F /  16.9 °C 61.0 °F /  16.1 °C 29.78in /  1008.4hPa Calm     95% 0.00in /  0mm 0.0 W/m2
05:13 62.4 °F /  16.9 °C 61.0 °F /  16.1 °C 29.78in /  1008.4hPa Calm     95% 0.00in /  0mm 0.0 W/m2
05:18 62.2 °F /  16.8 °C 60.8 °F /  16 °C 29.78in /  1008.4hPa Calm     95% 0.00in /  0mm 0.0 W/m2
05:23 62.2 °F /  16.8 °C 60.8 °F /  16 °C 29.78in /  1008.4hPa Calm     95% 0.00in /  0mm 0.0 W/m2
05:28 62.2 °F /  16.8 °C 60.8 °F /  16 °C 29.78in /  1008.4hPa Calm     95% 0.00in /  0mm 0.0 W/m2
05:33 62.4 °F /  16.9 °C 61.0 °F /  16.1 °C 29.78in /  1008.4hPa Calm     95% 0.00in /  0mm 0.0 W/m2
05:38 62.4 °F /  16.9 °C 61.0 °F /  16.1 °C 29.78in /  1008.4hPa Calm     95% 0.00in /  0mm 0.0 W/m2
05:43 62.4 °F /  16.9 °C 61.0 °F /  16.1 °C 29.78in /  1008.4hPa Calm     95% 0.00in /  0mm 0.0 W/m2
05:48 62.4 °F /  16.9 °C 61.0 °F /  16.1 °C 29.78in /  1008.4hPa Calm     95% 0.00in /  0mm 0.0 W/m2
05:54 62.4 °F /  16.9 °C 61.0 °F /  16.1 °C 29.78in /  1008.4hPa Calm     95% 0.00in /  0mm 0.0 W/m2
05:59 62.4 °F /  16.9 °C 61.0 °F /  16.1 °C 29.78in /  1008.4hPa Calm     95% 0.00in /  0mm 0.0 W/m2
06:04 62.4 °F /  16.9 °C 61.0 °F /  16.1 °C 29.78in /  1008.4hPa Calm   1.0mph /  1.6km/h 95% 0.00in /  0mm 0.0 W/m2
06:09 62.4 °F /  16.9 °C 61.0 °F /  16.1 °C 29.78in /  1008.4hPa Calm     95% 0.00in /  0mm 0.0 W/m2
06:14 62.4 °F /  16.9 °C 61.0 °F /  16.1 °C 29.78in /  1008.4hPa Calm     95% 0.00in /  0mm 0.0 W/m2
06:19 62.2 °F /  16.8 °C 60.8 °F /  16 °C 29.78in /  1008.4hPa Calm     95% 0.00in /  0mm 0.0 W/m2
06:24 62.2 °F /  16.8 °C 60.8 °F /  16 °C 29.78in /  1008.4hPa Calm     95% 0.00in /  0mm 0.0 W/m2
06:29 62.2 °F /  16.8 °C 60.8 °F /  16 °C 29.78in /  1008.4hPa Calm     95% 0.00in /  0mm 0.0 W/m2
06:34 62.2 °F /  16.8 °C 60.8 °F /  16 °C 29.78in /  1008.4hPa Calm     95% 0.00in /  0mm 0.0 W/m2
06:39 62.2 °F /  16.8 °C 60.8 °F /  16 °C 29.78in /  1008.4hPa Calm     95% 0.00in /  0mm 0.0 W/m2
06:45 62.2 °F /  16.8 °C 60.8 °F /  16 °C 29.79in /  1008.7hPa Calm     95% 0.00in /  0mm 0.0 W/m2
06:50 62.2 °F /  16.8 °C 60.8 °F /  16 °C 29.78in /  1008.4hPa Calm     95% 0.00in /  0mm 0.0 W/m2
06:55 62.2 °F /  16.8 °C 60.8 °F /  16 °C 29.79in /  1008.7hPa Calm     95% 0.00in /  0mm 0.0 W/m2
07:00 62.2 °F /  16.8 °C 60.8 °F /  16 °C 29.79in /  1008.7hPa Calm     95% 0.00in /  0mm 0.0 W/m2
07:05 62.4 °F /  16.9 °C 61.0 °F /  16.1 °C 29.79in /  1008.7hPa Calm     95% 0.00in /  0mm 0.0 W/m2
07:10 62.4 °F /  16.9 °C 61.0 °F /  16.1 °C 29.79in /  1008.7hPa Calm     95% 0.00in /  0mm 0.0 W/m2
07:15 62.4 °F /  16.9 °C 61.0 °F /  16.1 °C 29.79in /  1008.7hPa Calm     95% 0.00in /  0mm 0.0 W/m2
07:20 62.4 °F /  16.9 °C 61.0 °F /  16.1 °C 29.79in /  1008.7hPa Calm     95% 0.00in /  0mm 7.0 W/m2
07:25 62.4 °F /  16.9 °C 61.0 °F /  16.1 °C 29.79in /  1008.7hPa Calm     95% 0.00in /  0mm 23.0 W/m2
07:30 62.6 °F /  17 °C 61.2 °F /  16.2 °C 29.79in /  1008.7hPa Calm     95% 0.00in /  0mm 26.0 W/m2
07:36 62.8 °F /  17.1 °C 61.3 °F /  16.3 °C 29.79in /  1008.7hPa Calm     95% 0.00in /  0mm 28.0 W/m2
07:41 62.8 °F /  17.1 °C 61.3 °F /  16.3 °C 29.79in /  1008.7hPa Calm     95% 0.00in /  0mm 32.0 W/m2
07:46 62.8 °F /  17.1 °C 61.7 °F /  16.5 °C 29.79in /  1008.7hPa Calm     96% 0.00in /  0mm 42.0 W/m2
07:51 63.0 °F /  17.2 °C 61.9 °F /  16.6 °C 29.79in /  1008.7hPa Calm   2.0mph /  3.2km/h 96% 0.00in /  0mm 46.0 W/m2
07:56 62.8 °F /  17.1 °C 61.3 °F /  16.3 °C 29.79in /  1008.7hPa Calm   2.0mph /  3.2km/h 95% 0.00in /  0mm 46.0 W/m2
08:01 63.0 °F /  17.2 °C 61.5 °F /  16.4 °C 29.79in /  1008.7hPa Calm   1.0mph /  1.6km/h 95% 0.00in /  0mm 49.0 W/m2
08:06 63.0 °F /  17.2 °C 61.9 °F /  16.6 °C 29.79in /  1008.7hPa Calm     96% 0.00in /  0mm 72.0 W/m2
08:11 63.1 °F /  17.3 °C 62.1 °F /  16.7 °C 29.80in /  1009hPa NNW 2.0mph /  3.2km/h 2.0mph /  3.2km/h 96% 0.00in /  0mm 97.0 W/m2
08:16 63.1 °F /  17.3 °C 62.1 °F /  16.7 °C 29.80in /  1009hPa NNW 2.0mph /  3.2km/h 2.0mph /  3.2km/h 96% 0.00in /  0mm 105.0 W/m2
08:22 63.3 °F /  17.4 °C 61.9 °F /  16.6 °C 29.80in /  1009hPa NNW 0.9mph /  1.4km/h 3.0mph /  4.8km/h 95% 0.00in /  0mm 116.0 W/m2
08:27 63.3 °F /  17.4 °C 62.2 °F /  16.8 °C 29.80in /  1009hPa NNW 0.9mph /  1.4km/h 1.0mph /  1.6km/h 96% 0.00in /  0mm 121.0 W/m2
08:32 63.7 °F /  17.6 °C 62.2 °F /  16.8 °C 29.80in /  1009hPa Calm   5.0mph /  8km/h 95% 0.00in /  0mm 128.0 W/m2
08:37 63.7 °F /  17.6 °C 62.2 °F /  16.8 °C 29.80in /  1009hPa Calm   2.0mph /  3.2km/h 95% 0.00in /  0mm 139.0 W/m2
08:42 63.7 °F /  17.6 °C 61.9 °F /  16.6 °C 29.80in /  1009hPa North 2.0mph /  3.2km/h 2.0mph /  3.2km/h 94% 0.00in /  0mm 176.0 W/m2
08:47 63.9 °F /  17.7 °C 62.1 °F /  16.7 °C 29.80in /  1009hPa Calm   3.0mph /  4.8km/h 94% 0.00in /  0mm 211.0 W/m2
08:52 64.0 °F /  17.8 °C 62.2 °F /  16.8 °C 29.80in /  1009hPa WNW 0.9mph /  1.4km/h 4.0mph /  6.4km/h 94% 0.00in /  0mm 308.0 W/m2
08:57 64.6 °F /  18.1 °C 62.8 °F /  17.1 °C 29.81in /  1009.4hPa North 2.9mph /  4.7km/h 7.0mph /  11.3km/h 94% 0.00in /  0mm 237.0 W/m2
09:03 64.8 °F /  18.2 °C 62.4 °F /  16.9 °C 29.81in /  1009.4hPa NNE 4.0mph /  6.4km/h 6.0mph /  9.7km/h 92% 0.00in /  0mm 276.0 W/m2
09:08 65.1 °F /  18.4 °C 62.8 °F /  17.1 °C 29.81in /  1009.4hPa NNW 2.9mph /  4.7km/h 4.0mph /  6.4km/h 92% 0.00in /  0mm 283.0 W/m2
09:13 65.5 °F /  18.6 °C 62.4 °F /  16.9 °C 29.81in /  1009.4hPa NNE 4.0mph /  6.4km/h 5.0mph /  8km/h 90% 0.00in /  0mm 193.0 W/m2
09:18 65.8 °F /  18.8 °C 62.4 °F /  16.9 °C 29.81in /  1009.4hPa Calm   3.0mph /  4.8km/h 89% 0.00in /  0mm 192.0 W/m2
09:23 66.0 °F /  18.9 °C 63.0 °F /  17.2 °C 29.81in /  1009.4hPa Calm   2.0mph /  3.2km/h 90% 0.00in /  0mm 102.0 W/m2
09:28 66.2 °F /  19 °C 62.8 °F /  17.1 °C 29.82in /  1009.7hPa Calm   2.0mph /  3.2km/h 89% 0.00in /  0mm 121.0 W/m2
09:33 66.4 °F /  19.1 °C 62.8 °F /  17.1 °C 29.82in /  1009.7hPa West 0.9mph /  1.4km/h 1.0mph /  1.6km/h 88% 0.00in /  0mm 155.0 W/m2
09:40 66.6 °F /  19.2 °C 63.1 °F /  17.3 °C 29.82in /  1009.7hPa Calm   2.0mph /  3.2km/h 89% 0.00in /  0mm 243.0 W/m2
09:45 66.6 °F /  19.2 °C 63.0 °F /  17.2 °C 29.82in /  1009.7hPa Calm   2.0mph /  3.2km/h 88% 0.00in /  0mm 144.0 W/m2
09:50 66.7 °F /  19.3 °C 62.4 °F /  16.9 °C 29.82in /  1009.7hPa NW 2.9mph /  4.7km/h 6.0mph /  9.7km/h 86% 0.00in /  0mm 98.0 W/m2
09:56 66.7 °F /  19.3 °C 62.1 °F /  16.7 °C 29.82in /  1009.7hPa NNW 2.0mph /  3.2km/h 5.0mph /  8km/h 85% 0.00in /  0mm 105.0 W/m2
10:01 66.7 °F /  19.3 °C 62.1 °F /  16.7 °C 29.82in /  1009.7hPa NNW 2.9mph /  4.7km/h 5.0mph /  8km/h 85% 0.00in /  0mm 341.0 W/m2
10:06 67.1 °F /  19.5 °C 62.8 °F /  17.1 °C 29.82in /  1009.7hPa Calm   3.0mph /  4.8km/h 86% 0.00in /  0mm 223.0 W/m2
10:11 67.5 °F /  19.7 °C 62.8 °F /  17.1 °C 29.82in /  1009.7hPa North 0.9mph /  1.4km/h 3.0mph /  4.8km/h 85% 0.00in /  0mm 225.0 W/m2
10:16 67.8 °F /  19.9 °C 62.4 °F /  16.9 °C 29.82in /  1009.7hPa Calm   1.0mph /  1.6km/h 83% 0.00in /  0mm 793.0 W/m2
10:21 68.5 °F /  20.3 °C 62.1 °F /  16.7 °C 29.82in /  1009.7hPa North 2.0mph /  3.2km/h 8.0mph /  12.9km/h 80% 0.00in /  0mm 738.0 W/m2
10:26 69.4 °F /  20.8 °C 61.5 °F /  16.4 °C 29.82in /  1009.7hPa North 4.0mph /  6.4km/h 5.0mph /  8km/h 76% 0.00in /  0mm 343.0 W/m2
10:31 69.8 °F /  21 °C 61.2 °F /  16.2 °C 29.81in /  1009.4hPa North 4.9mph /  7.9km/h 8.0mph /  12.9km/h 74% 0.00in /  0mm 176.0 W/m2
10:36 70.2 °F /  21.2 °C 61.5 °F /  16.4 °C 29.81in /  1009.4hPa NE 2.9mph /  4.7km/h 3.0mph /  4.8km/h 74% 0.00in /  0mm 854.0 W/m2
10:42 71.1 °F /  21.7 °C 61.2 °F /  16.2 °C 29.81in /  1009.4hPa NW 2.9mph /  4.7km/h 3.0mph /  4.8km/h 71% 0.00in /  0mm 884.0 W/m2
10:47 72.3 °F /  22.4 °C 61.2 °F /  16.2 °C 29.81in /  1009.4hPa WNW 0.9mph /  1.4km/h 7.0mph /  11.3km/h 68% 0.00in /  0mm 752.0 W/m2
10:52 73.0 °F /  22.8 °C 61.5 °F /  16.4 °C 29.80in /  1009hPa West 2.0mph /  3.2km/h 6.0mph /  9.7km/h 67% 0.00in /  0mm 441.0 W/m2
10:57 73.2 °F /  22.9 °C 60.8 °F /  16 °C 29.80in /  1009hPa Calm   5.0mph /  8km/h 65% 0.00in /  0mm 671.0 W/m2
11:03 73.6 °F /  23.1 °C 60.6 °F /  15.9 °C 29.80in /  1009hPa NNW 6.0mph /  9.7km/h 9.0mph /  14.5km/h 64% 0.00in /  0mm 338.0 W/m2
11:08 74.3 °F /  23.5 °C 61.7 °F /  16.5 °C 29.80in /  1009hPa NNW 2.9mph /  4.7km/h 5.0mph /  8km/h 65% 0.00in /  0mm 1187.0 W/m2
11:13 75.0 °F /  23.9 °C 60.6 °F /  15.9 °C 29.80in /  1009hPa NNE 0.9mph /  1.4km/h 6.0mph /  9.7km/h 61% 0.00in /  0mm 998.0 W/m2
11:18 75.7 °F /  24.3 °C 60.8 °F /  16 °C 29.80in /  1009hPa NW 4.9mph /  7.9km/h 6.0mph /  9.7km/h 60% 0.00in /  0mm 998.0 W/m2
11:23 76.3 °F /  24.6 °C 60.4 °F /  15.8 °C 29.80in /  1009hPa WNW 0.9mph /  1.4km/h 4.0mph /  6.4km/h 58% 0.00in /  0mm 649.0 W/m2
11:29 76.8 °F /  24.9 °C 60.4 °F /  15.8 °C 29.80in /  1009hPa NNW 4.0mph /  6.4km/h 4.0mph /  6.4km/h 57% 0.00in /  0mm 436.0 W/m2
11:34 76.8 °F /  24.9 °C 59.4 °F /  15.2 °C 29.80in /  1009hPa NE 4.9mph /  7.9km/h 9.0mph /  14.5km/h 55% 0.00in /  0mm 561.0 W/m2
11:39 76.5 °F /  24.7 °C 60.1 °F /  15.6 °C 29.80in /  1009hPa North 4.0mph /  6.4km/h 7.0mph /  11.3km/h 57% 0.00in /  0mm 636.0 W/m2
11:44 76.3 °F /  24.6 °C 61.0 °F /  16.1 °C 29.80in /  1009hPa NNE 2.9mph /  4.7km/h 9.0mph /  14.5km/h 59% 0.00in /  0mm 686.0 W/m2
11:49 76.3 °F /  24.6 °C 61.0 °F /  16.1 °C 29.80in /  1009hPa WNW 6.9mph /  11.1km/h 8.0mph /  12.9km/h 59% 0.00in /  0mm 745.0 W/m2
11:54 76.3 °F /  24.6 °C 61.0 °F /  16.1 °C 29.80in /  1009hPa NNW 4.0mph /  6.4km/h 11.0mph /  17.7km/h 59% 0.00in /  0mm 661.0 W/m2
11:59 75.9 °F /  24.4 °C 61.5 °F /  16.4 °C 29.80in /  1009hPa Calm   7.0mph /  11.3km/h 61% 0.00in /  0mm 758.0 W/m2
12:04 75.9 °F /  24.4 °C 61.0 °F /  16.1 °C 29.80in /  1009hPa NNW 6.0mph /  9.7km/h 6.0mph /  9.7km/h 60% 0.00in /  0mm 522.0 W/m2
12:09 75.7 °F /  24.3 °C 60.4 °F /  15.8 °C 29.80in /  1009hPa NW 4.0mph /  6.4km/h 6.0mph /  9.7km/h 59% 0.00in /  0mm 520.0 W/m2
12:14 75.6 °F /  24.2 °C 60.3 °F /  15.7 °C 29.79in /  1008.7hPa WSW 2.0mph /  3.2km/h 3.0mph /  4.8km/h 59% 0.00in /  0mm 642.0 W/m2
12:19 75.7 °F /  24.3 °C 60.4 °F /  15.8 °C 29.79in /  1008.7hPa Calm   5.0mph /  8km/h 59% 0.00in /  0mm 721.0 W/m2
12:25 76.3 °F /  24.6 °C 59.9 °F /  15.5 °C 29.79in /  1008.7hPa WNW 0.9mph /  1.4km/h 6.0mph /  9.7km/h 57% 0.00in /  0mm 708.0 W/m2
12:30 76.5 °F /  24.7 °C 60.1 °F /  15.6 °C 29.79in /  1008.7hPa NNW 4.9mph /  7.9km/h 6.0mph /  9.7km/h 57% 0.00in /  0mm 545.0 W/m2
12:35 76.5 °F /  24.7 °C 59.5 °F /  15.3 °C 29.78in /  1008.4hPa NNW 4.0mph /  6.4km/h 8.0mph /  12.9km/h 56% 0.00in /  0mm 942.0 W/m2
12:40 76.8 °F /  24.9 °C 60.4 °F /  15.8 °C 29.78in /  1008.4hPa North 2.0mph /  3.2km/h 7.0mph /  11.3km/h 57% 0.00in /  0mm 708.0 W/m2
12:45 77.5 °F /  25.3 °C 59.5 °F /  15.3 °C 29.78in /  1008.4hPa North 2.9mph /  4.7km/h 7.0mph /  11.3km/h 54% 0.00in /  0mm 738.0 W/m2
12:50 77.9 °F /  25.5 °C 60.4 °F /  15.8 °C 29.78in /  1008.4hPa NNW 4.0mph /  6.4km/h 8.0mph /  12.9km/h 55% 0.00in /  0mm 719.0 W/m2
12:55 78.1 °F /  25.6 °C 60.1 °F /  15.6 °C 29.78in /  1008.4hPa NNW 8.1mph /  13km/h 8.1mph /  13km/h 54% 0.00in /  0mm 401.0 W/m2
13:00 77.5 °F /  25.3 °C 60.6 °F /  15.9 °C 29.78in /  1008.4hPa North 8.1mph /  13km/h 9.0mph /  14.5km/h 56% 0.00in /  0mm 540.0 W/m2
13:05 77.4 °F /  25.2 °C 60.4 °F /  15.8 °C 29.78in /  1008.4hPa WNW 0.9mph /  1.4km/h 3.0mph /  4.8km/h 56% 0.00in /  0mm 566.0 W/m2
13:10 77.4 °F /  25.2 °C 61.0 °F /  16.1 °C 29.77in /  1008hPa NW 6.9mph /  11.1km/h 7.0mph /  11.3km/h 57% 0.00in /  0mm 499.0 W/m2
13:16 77.2 °F /  25.1 °C 60.8 °F /  16 °C 29.77in /  1008hPa NNW 2.0mph /  3.2km/h 9.0mph /  14.5km/h 57% 0.00in /  0mm 691.0 W/m2
13:21 77.4 °F /  25.2 °C 61.0 °F /  16.1 °C 29.77in /  1008hPa NW 6.0mph /  9.7km/h 10.0mph /  16.1km/h 57% 0.00in /  0mm 795.0 W/m2
13:26 78.1 °F /  25.6 °C 60.6 °F /  15.9 °C 29.76in /  1007.7hPa NNW 4.9mph /  7.9km/h 10.0mph /  16.1km/h 55% 0.00in /  0mm 977.0 W/m2
13:31 78.4 °F /  25.8 °C 61.5 °F /  16.4 °C 29.76in /  1007.7hPa Calm   9.0mph /  14.5km/h 56% 0.00in /  0mm 991.0 W/m2
13:36 78.8 °F /  26 °C 60.3 °F /  15.7 °C 29.76in /  1007.7hPa SSW 2.9mph /  4.7km/h 11.0mph /  17.7km/h 53% 0.00in /  0mm 441.0 W/m2
13:41 79.0 °F /  26.1 °C 61.0 °F /  16.1 °C 29.76in /  1007.7hPa WSW 0.9mph /  1.4km/h 6.0mph /  9.7km/h 54% 0.00in /  0mm 408.0 W/m2
13:46 78.6 °F /  25.9 °C 60.1 °F /  15.6 °C 29.76in /  1007.7hPa WNW 2.9mph /  4.7km/h 8.0mph /  12.9km/h 53% 0.00in /  0mm 555.0 W/m2
13:51 78.4 °F /  25.8 °C 59.9 °F /  15.5 °C 29.76in /  1007.7hPa North 6.9mph /  11.1km/h 10.0mph /  16.1km/h 53% 0.00in /  0mm 504.0 W/m2
13:56 78.3 °F /  25.7 °C 60.3 °F /  15.7 °C 29.76in /  1007.7hPa NNW 6.0mph /  9.7km/h 6.0mph /  9.7km/h 54% 0.00in /  0mm 793.0 W/m2
14:01 78.3 °F /  25.7 °C 59.7 °F /  15.4 °C 29.76in /  1007.7hPa North 4.9mph /  7.9km/h 7.0mph /  11.3km/h 53% 0.00in /  0mm 348.0 W/m2
14:06 77.7 °F /  25.4 °C 60.3 °F /  15.7 °C 29.76in /  1007.7hPa Calm   11.0mph /  17.7km/h 55% 0.00in /  0mm 325.0 W/m2
14:12 77.5 °F /  25.3 °C 60.1 °F /  15.6 °C 29.76in /  1007.7hPa West 0.9mph /  1.4km/h 8.0mph /  12.9km/h 55% 0.00in /  0mm 761.0 W/m2
14:17 77.7 °F /  25.4 °C 59.2 °F /  15.1 °C 29.75in /  1007.3hPa NNW 4.0mph /  6.4km/h 8.0mph /  12.9km/h 53% 0.00in /  0mm 454.0 W/m2
14:22 77.7 °F /  25.4 °C 59.7 °F /  15.4 °C 29.75in /  1007.3hPa SW 2.0mph /  3.2km/h 8.0mph /  12.9km/h 54% 0.00in /  0mm 550.0 W/m2
14:27 78.1 °F /  25.6 °C 60.1 °F /  15.6 °C 29.75in /  1007.3hPa NW 2.9mph /  4.7km/h 5.0mph /  8km/h 54% 0.00in /  0mm 621.0 W/m2
14:32 78.4 °F /  25.8 °C 59.4 °F /  15.2 °C 29.75in /  1007.3hPa WNW 0.9mph /  1.4km/h 5.0mph /  8km/h 52% 0.00in /  0mm 394.0 W/m2
14:38 78.3 °F /  25.7 °C 59.2 °F /  15.1 °C 29.74in /  1007hPa WNW 2.0mph /  3.2km/h 6.0mph /  9.7km/h 52% 0.00in /  0mm 462.0 W/m2
14:44 78.3 °F /  25.7 °C 59.7 °F /  15.4 °C 29.74in /  1007hPa WNW 0.9mph /  1.4km/h 10.0mph /  16.1km/h 53% 0.00in /  0mm 459.0 W/m2
14:49 78.4 °F /  25.8 °C 59.4 °F /  15.2 °C 29.73in /  1006.7hPa North 4.9mph /  7.9km/h 9.0mph /  14.5km/h 52% 0.00in /  0mm 489.0 W/m2
14:54 78.4 °F /  25.8 °C 59.9 °F /  15.5 °C 29.73in /  1006.7hPa NNW 2.9mph /  4.7km/h 10.0mph /  16.1km/h 53% 0.00in /  0mm 301.0 W/m2
14:59 78.3 °F /  25.7 °C 59.7 °F /  15.4 °C 29.72in /  1006.3hPa North 4.0mph /  6.4km/h 8.0mph /  12.9km/h 53% 0.00in /  0mm 410.0 W/m2
15:05 78.1 °F /  25.6 °C 60.1 °F /  15.6 °C 29.72in /  1006.3hPa Calm   5.0mph /  8km/h 54% 0.00in /  0mm 673.0 W/m2
15:10 78.3 °F /  25.7 °C 60.8 °F /  16 °C 29.72in /  1006.3hPa WSW 0.9mph /  1.4km/h 8.0mph /  12.9km/h 55% 0.00in /  0mm 510.0 W/m2
15:16 78.4 °F /  25.8 °C 61.0 °F /  16.1 °C 29.71in /  1006hPa West 2.9mph /  4.7km/h 5.0mph /  8km/h 55% 0.00in /  0mm 960.0 W/m2
15:21 78.6 °F /  25.9 °C 60.1 °F /  15.6 °C 29.71in /  1006hPa Calm   6.0mph /  9.7km/h 53% 0.00in /  0mm 139.0 W/m2
15:26 78.1 °F /  25.6 °C 60.1 °F /  15.6 °C 29.72in /  1006.3hPa NW 4.9mph /  7.9km/h 9.0mph /  14.5km/h 54% 0.00in /  0mm 178.0 W/m2
15:31 77.7 °F /  25.4 °C 60.3 °F /  15.7 °C 29.72in /  1006.3hPa NW 2.0mph /  3.2km/h 7.0mph /  11.3km/h 55% 0.00in /  0mm 214.0 W/m2
15:36 77.4 °F /  25.2 °C 59.4 °F /  15.2 °C 29.72in /  1006.3hPa NW 8.1mph /  13km/h 13.0mph /  20.9km/h 54% 0.00in /  0mm 181.0 W/m2
15:41 76.8 °F /  24.9 °C 59.9 °F /  15.5 °C 29.72in /  1006.3hPa WNW 6.9mph /  11.1km/h 8.0mph /  12.9km/h 56% 0.00in /  0mm 149.0 W/m2
15:46 76.5 °F /  24.7 °C 62.1 °F /  16.7 °C 29.73in /  1006.7hPa West 4.9mph /  7.9km/h 10.0mph /  16.1km/h 61% 0.00in /  0mm 155.0 W/m2
15:51 75.7 °F /  24.3 °C 62.2 °F /  16.8 °C 29.73in /  1006.7hPa West 0.9mph /  1.4km/h 9.0mph /  14.5km/h 63% 0.00in /  0mm 132.0 W/m2
15:56 75.0 °F /  23.9 °C 62.4 °F /  16.9 °C 29.73in /  1006.7hPa WSW 2.9mph /  4.7km/h 6.0mph /  9.7km/h 65% 0.00in /  0mm 183.0 W/m2
16:01 74.3 °F /  23.5 °C 61.7 °F /  16.5 °C 29.73in /  1006.7hPa WSW 4.0mph /  6.4km/h 13.0mph /  20.9km/h 65% 0.00in /  0mm 258.0 W/m2
16:06 73.8 °F /  23.2 °C 62.1 °F /  16.7 °C 29.73in /  1006.7hPa West 2.0mph /  3.2km/h 5.0mph /  8km/h 67% 0.00in /  0mm 301.0 W/m2
16:12 73.8 °F /  23.2 °C 62.1 °F /  16.7 °C 29.73in /  1006.7hPa WSW 4.9mph /  7.9km/h 12.0mph /  19.3km/h 67% 0.00in /  0mm 290.0 W/m2
16:17 73.4 °F /  23 °C 62.6 °F /  17 °C 29.73in /  1006.7hPa SW 8.1mph /  13km/h 10.0mph /  16.1km/h 69% 0.00in /  0mm 373.0 W/m2
16:22 73.0 °F /  22.8 °C 63.1 °F /  17.3 °C 29.73in /  1006.7hPa SW 2.0mph /  3.2km/h 7.0mph /  11.3km/h 71% 0.00in /  0mm 214.0 W/m2
16:28 72.7 °F /  22.6 °C 61.9 °F /  16.6 °C 29.73in /  1006.7hPa SW 2.9mph /  4.7km/h 9.0mph /  14.5km/h 69% 0.00in /  0mm 279.0 W/m2
16:33 72.1 °F /  22.3 °C 61.9 °F /  16.6 °C 29.73in /  1006.7hPa SW 8.1mph /  13km/h 12.0mph /  19.3km/h 70% 0.00in /  0mm 315.0 W/m2
16:38 72.0 °F /  22.2 °C 62.1 °F /  16.7 °C 29.73in /  1006.7hPa WSW 2.0mph /  3.2km/h 7.0mph /  11.3km/h 71% 0.00in /  0mm 863.0 W/m2
16:43 72.9 °F /  22.7 °C 63.0 °F /  17.2 °C 29.73in /  1006.7hPa West 2.9mph /  4.7km/h 3.0mph /  4.8km/h 71% 0.00in /  0mm 297.0 W/m2
16:48 73.6 °F /  23.1 °C 62.8 °F /  17.1 °C 29.72in /  1006.3hPa WSW 0.9mph /  1.4km/h 6.0mph /  9.7km/h 69% 0.00in /  0mm 139.0 W/m2
16:53 73.2 °F /  22.9 °C 62.4 °F /  16.9 °C 29.73in /  1006.7hPa West 0.9mph /  1.4km/h 6.0mph /  9.7km/h 69% 0.00in /  0mm 102.0 W/m2
16:58 73.2 °F /  22.9 °C 62.8 °F /  17.1 °C 29.73in /  1006.7hPa WSW 0.9mph /  1.4km/h 1.0mph /  1.6km/h 70% 0.00in /  0mm 290.0 W/m2
17:03 73.4 °F /  23 °C 62.2 °F /  16.8 °C 29.73in /  1006.7hPa NNW 4.0mph /  6.4km/h 4.0mph /  6.4km/h 68% 0.00in /  0mm 148.0 W/m2
17:09 73.6 °F /  23.1 °C 60.6 °F /  15.9 °C 29.72in /  1006.3hPa NW 8.1mph /  13km/h 9.0mph /  14.5km/h 64% 0.00in /  0mm 128.0 W/m2
17:14 73.6 °F /  23.1 °C 60.6 °F /  15.9 °C 29.72in /  1006.3hPa NNW 4.0mph /  6.4km/h 7.0mph /  11.3km/h 64% 0.00in /  0mm 91.0 W/m2
17:19 73.2 °F /  22.9 °C 60.8 °F /  16 °C 29.72in /  1006.3hPa NW 2.9mph /  4.7km/h 8.0mph /  12.9km/h 65% 0.00in /  0mm 84.0 W/m2
17:24 73.0 °F /  22.8 °C 61.0 °F /  16.1 °C 29.72in /  1006.3hPa WNW 4.0mph /  6.4km/h 7.0mph /  11.3km/h 66% 0.00in /  0mm 81.0 W/m2
17:29 72.7 °F /  22.6 °C 61.5 °F /  16.4 °C 29.73in /  1006.7hPa NNW 4.9mph /  7.9km/h 9.0mph /  14.5km/h 68% 0.00in /  0mm 44.0 W/m2
17:34 72.3 °F /  22.4 °C 61.5 °F /  16.4 °C 29.73in /  1006.7hPa Calm   2.0mph /  3.2km/h 69% 0.00in /  0mm 25.0 W/m2
17:39 72.1 °F /  22.3 °C 61.9 °F /  16.6 °C 29.74in /  1007hPa North 2.9mph /  4.7km/h 9.0mph /  14.5km/h 70% 0.00in /  0mm 9.0 W/m2
17:44 71.8 °F /  22.1 °C 61.9 °F /  16.6 °C 29.75in /  1007.3hPa NW 6.0mph /  9.7km/h 14.0mph /  22.5km/h 71% 0.00in /  0mm 14.0 W/m2
17:50 70.3 °F /  21.3 °C 61.3 °F /  16.3 °C 29.75in /  1007.3hPa WSW 2.9mph /  4.7km/h 10.0mph /  16.1km/h 73% 0.00in /  0mm 26.0 W/m2
17:55 69.3 °F /  20.7 °C 61.3 °F /  16.3 °C 29.75in /  1007.3hPa SW 4.0mph /  6.4km/h 11.0mph /  17.7km/h 76% 0.00in /  0mm 30.0 W/m2
18:00 68.2 °F /  20.1 °C 61.0 °F /  16.1 °C 29.75in /  1007.3hPa SW 2.9mph /  4.7km/h 10.0mph /  16.1km/h 78% 0.00in /  0mm 30.0 W/m2
18:06 67.3 °F /  19.6 °C 60.6 °F /  15.9 °C 29.75in /  1007.3hPa WSW 0.9mph /  1.4km/h 8.0mph /  12.9km/h 79% 0.00in /  0mm 28.0 W/m2
18:11 66.7 °F /  19.3 °C 60.8 °F /  16 °C 29.75in /  1007.3hPa SW 2.9mph /  4.7km/h 3.0mph /  4.8km/h 81% 0.00in /  0mm 23.0 W/m2
18:16 66.7 °F /  19.3 °C 60.8 °F /  16 °C 29.75in /  1007.3hPa Calm   2.0mph /  3.2km/h 81% 0.00in /  0mm 18.0 W/m2
18:22 66.7 °F /  19.3 °C 61.0 °F /  16.1 °C 29.76in /  1007.7hPa South 2.0mph /  3.2km/h 3.0mph /  4.8km/h 82% 0.00in /  0mm 14.0 W/m2
18:27 66.6 °F /  19.2 °C 61.0 °F /  16.1 °C 29.75in /  1007.3hPa South 0.9mph /  1.4km/h 1.0mph /  1.6km/h 82% 0.00in /  0mm 12.0 W/m2
18:32 66.6 °F /  19.2 °C 60.6 °F /  15.9 °C 29.76in /  1007.7hPa Calm   4.0mph /  6.4km/h 81% 0.00in /  0mm 11.0 W/m2
18:37 66.6 °F /  19.2 °C 60.6 °F /  15.9 °C 29.76in /  1007.7hPa Calm   3.0mph /  4.8km/h 81% 0.00in /  0mm 11.0 W/m2
18:42 66.6 °F /  19.2 °C 60.6 °F /  15.9 °C 29.76in /  1007.7hPa SW 0.9mph /  1.4km/h 1.0mph /  1.6km/h 81% 0.00in /  0mm 14.0 W/m2
18:47 66.4 °F /  19.1 °C 60.1 °F /  15.6 °C 29.75in /  1007.3hPa SW 0.9mph /  1.4km/h 3.0mph /  4.8km/h 80% 0.00in /  0mm 16.0 W/m2
18:52 66.4 °F /  19.1 °C 60.1 °F /  15.6 °C 29.75in /  1007.3hPa WSW 2.9mph /  4.7km/h 3.0mph /  4.8km/h 80% 0.00in /  0mm 16.0 W/m2
18:57 66.4 °F /  19.1 °C 60.1 °F /  15.6 °C 29.76in /  1007.7hPa Calm   1.0mph /  1.6km/h 80% 0.00in /  0mm 12.0 W/m2
19:02 66.6 °F /  19.2 °C 60.3 °F /  15.7 °C 29.76in /  1007.7hPa Calm   4.0mph /  6.4km/h 80% 0.00in /  0mm 9.0 W/m2
19:07 66.6 °F /  19.2 °C 60.3 °F /  15.7 °C 29.76in /  1007.7hPa West 2.9mph /  4.7km/h 3.0mph /  4.8km/h 80% 0.00in /  0mm 7.0 W/m2
19:13 66.6 °F /  19.2 °C 59.9 °F /  15.5 °C 29.76in /  1007.7hPa West 0.9mph /  1.4km/h 2.0mph /  3.2km/h 79% 0.00in /  0mm 5.0 W/m2
19:18 66.6 °F /  19.2 °C 59.5 °F /  15.3 °C 29.76in /  1007.7hPa West 2.0mph /  3.2km/h 5.0mph /  8km/h 78% 0.00in /  0mm 0.0 W/m2
19:23 66.4 °F /  19.1 °C 59.4 °F /  15.2 °C 29.76in /  1007.7hPa WSW 4.0mph /  6.4km/h 5.0mph /  8km/h 78% 0.00in /  0mm 0.0 W/m2
19:28 66.4 °F /  19.1 °C 59.4 °F /  15.2 °C 29.76in /  1007.7hPa Calm   2.0mph /  3.2km/h 78% 0.00in /  0mm 0.0 W/m2
19:33 66.4 °F /  19.1 °C 59.4 °F /  15.2 °C 29.77in /  1008hPa West 2.0mph /  3.2km/h 5.0mph /  8km/h 78% 0.00in /  0mm 0.0 W/m2
19:39 66.4 °F /  19.1 °C 60.1 °F /  15.6 °C 29.77in /  1008hPa West 2.0mph /  3.2km/h 3.0mph /  4.8km/h 80% 0.00in /  0mm 0.0 W/m2
19:44 66.2 °F /  19 °C 60.6 °F /  15.9 °C 29.77in /  1008hPa Calm   2.0mph /  3.2km/h 82% 0.00in /  0mm 0.0 W/m2
19:49 66.0 °F /  18.9 °C 60.6 °F /  15.9 °C 29.76in /  1007.7hPa WSW 2.0mph /  3.2km/h 3.0mph /  4.8km/h 83% 0.02in /  0.51mm 0.0 W/m2
19:55 65.7 °F /  18.7 °C 61.0 °F /  16.1 °C 29.77in /  1008hPa Calm   3.0mph /  4.8km/h 85% 0.02in /  0.51mm 0.0 W/m2
20:00 65.5 °F /  18.6 °C 61.2 °F /  16.2 °C 29.77in /  1008hPa Calm   2.0mph /  3.2km/h 86% 0.02in /  0.51mm 0.0 W/m2
20:05 65.1 °F /  18.4 °C 61.2 °F /  16.2 °C 29.77in /  1008hPa Calm     87% 0.03in /  0.76mm 0.0 W/m2
20:11 64.9 °F /  18.3 °C 61.3 °F /  16.3 °C 29.77in /  1008hPa Calm   2.0mph /  3.2km/h 88% 0.03in /  0.76mm 0.0 W/m2
20:16 64.8 °F /  18.2 °C 61.2 °F /  16.2 °C 29.77in /  1008hPa Calm     88% 0.04in /  1.02mm 0.0 W/m2
20:21 64.6 °F /  18.1 °C 61.3 °F /  16.3 °C 29.77in /  1008hPa Calm     89% 0.04in /  1.02mm 0.0 W/m2
20:27 64.6 °F /  18.1 °C 61.5 °F /  16.4 °C 29.77in /  1008hPa Calm     90% 0.05in /  1.27mm 0.0 W/m2
20:32 64.6 °F /  18.1 °C 61.5 °F /  16.4 °C 29.77in /  1008hPa Calm     90% 0.05in /  1.27mm 0.0 W/m2
20:37 64.4 °F /  18 °C 61.3 °F /  16.3 °C 29.77in /  1008hPa Calm     90% 0.05in /  1.27mm 0.0 W/m2
20:42 64.2 °F /  17.9 °C 61.2 °F /  16.2 °C 29.77in /  1008hPa Calm     90% 0.05in /  1.27mm 0.0 W/m2
20:47 64.2 °F /  17.9 °C 61.5 °F /  16.4 °C 29.77in /  1008hPa Calm     91% 0.04in /  1.02mm 0.0 W/m2
20:52 64.2 °F /  17.9 °C 61.5 °F /  16.4 °C 29.78in /  1008.4hPa Calm     91% 0.03in /  0.76mm 0.0 W/m2
20:57 64.2 °F /  17.9 °C 61.5 °F /  16.4 °C 29.78in /  1008.4hPa Calm     91% 0.02in /  0.51mm 0.0 W/m2
21:03 64.2 °F /  17.9 °C 61.5 °F /  16.4 °C 29.78in /  1008.4hPa Calm     91% 0.02in /  0.51mm 0.0 W/m2
21:08 64.2 °F /  17.9 °C 61.5 °F /  16.4 °C 29.78in /  1008.4hPa Calm     91% 0.02in /  0.51mm 0.0 W/m2
21:13 64.2 °F /  17.9 °C 61.5 °F /  16.4 °C 29.78in /  1008.4hPa Calm     91% 0.02in /  0.51mm 0.0 W/m2
21:19 64.2 °F /  17.9 °C 61.9 °F /  16.6 °C 29.79in /  1008.7hPa Calm   1.0mph /  1.6km/h 92% 0.01in /  0.25mm 0.0 W/m2
21:24 64.2 °F /  17.9 °C 61.9 °F /  16.6 °C 29.79in /  1008.7hPa Calm     92% 0.01in /  0.25mm 0.0 W/m2
21:30 64.2 °F /  17.9 °C 61.9 °F /  16.6 °C 29.79in /  1008.7hPa Calm     92% 0.00in /  0mm 0.0 W/m2
21:35 64.2 °F /  17.9 °C 61.9 °F /  16.6 °C 29.79in /  1008.7hPa Calm     92% 0.00in /  0mm 0.0 W/m2
21:41 64.2 °F /  17.9 °C 61.9 °F /  16.6 °C 29.80in /  1009hPa Calm     92% 0.00in /  0mm 0.0 W/m2
21:47 64.2 °F /  17.9 °C 61.9 °F /  16.6 °C 29.79in /  1008.7hPa Calm     92% 0.00in /  0mm 0.0 W/m2
21:52 64.2 °F /  17.9 °C 62.2 °F /  16.8 °C 29.79in /  1008.7hPa Calm     93% 0.00in /  0mm 0.0 W/m2
21:57 64.2 °F /  17.9 °C 61.9 °F /  16.6 °C 29.79in /  1008.7hPa Calm     92% 0.00in /  0mm 0.0 W/m2
22:02 64.2 °F /  17.9 °C 61.9 °F /  16.6 °C 29.80in /  1009hPa Calm     92% 0.00in /  0mm 0.0 W/m2
22:07 64.2 °F /  17.9 °C 61.9 °F /  16.6 °C 29.80in /  1009hPa Calm     92% 0.00in /  0mm 0.0 W/m2
22:13 64.0 °F /  17.8 °C 61.7 °F /  16.5 °C 29.80in /  1009hPa Calm     92% 0.00in /  0mm 0.0 W/m2
22:19 64.0 °F /  17.8 °C 61.7 °F /  16.5 °C 29.80in /  1009hPa Calm     92% 0.00in /  0mm 0.0 W/m2
22:24 64.0 °F /  17.8 °C 62.1 °F /  16.7 °C 29.79in /  1008.7hPa Calm   5.0mph /  8km/h 93% 0.00in /  0mm 0.0 W/m2
22:30 63.9 °F /  17.7 °C 61.5 °F /  16.4 °C 29.79in /  1008.7hPa Calm     92% 0.00in /  0mm 0.0 W/m2
22:35 63.9 °F /  17.7 °C 61.5 °F /  16.4 °C 29.79in /  1008.7hPa Calm   3.0mph /  4.8km/h 92% 0.00in /  0mm 0.0 W/m2
22:40 63.9 °F /  17.7 °C 61.2 °F /  16.2 °C 29.79in /  1008.7hPa Calm   3.0mph /  4.8km/h 91% 0.00in /  0mm 0.0 W/m2
22:46 63.7 °F /  17.6 °C 61.0 °F /  16.1 °C 29.79in /  1008.7hPa Calm   1.0mph /  1.6km/h 91% 0.00in /  0mm 0.0 W/m2
22:51 63.7 °F /  17.6 °C 61.0 °F /  16.1 °C 29.79in /  1008.7hPa NW 0.9mph /  1.4km/h 2.0mph /  3.2km/h 91% 0.00in /  0mm 0.0 W/m2
22:57 63.7 °F /  17.6 °C 61.3 °F /  16.3 °C 29.79in /  1008.7hPa Calm     92% 0.00in /  0mm 0.0 W/m2
23:02 63.7 °F /  17.6 °C 61.3 °F /  16.3 °C 29.79in /  1008.7hPa Calm   3.0mph /  4.8km/h 92% 0.00in /  0mm 0.0 W/m2
23:07 63.5 °F /  17.5 °C 61.2 °F /  16.2 °C 29.79in /  1008.7hPa WNW 0.9mph /  1.4km/h 2.0mph /  3.2km/h 92% 0.00in /  0mm 0.0 W/m2
23:12 63.3 °F /  17.4 °C 60.6 °F /  15.9 °C 29.79in /  1008.7hPa Calm   4.0mph /  6.4km/h 91% 0.00in /  0mm 0.0 W/m2
23:18 63.3 °F /  17.4 °C 60.6 °F /  15.9 °C 29.79in /  1008.7hPa Calm   1.0mph /  1.6km/h 91% 0.00in /  0mm 0.0 W/m2
23:23 63.3 °F /  17.4 °C 60.6 °F /  15.9 °C 29.79in /  1008.7hPa Calm   1.0mph /  1.6km/h 91% 0.00in /  0mm 0.0 W/m2
23:28 63.3 °F /  17.4 °C 60.6 °F /  15.9 °C 29.79in /  1008.7hPa Calm     91% 0.00in /  0mm 0.0 W/m2
23:33 63.3 °F /  17.4 °C 60.6 °F /  15.9 °C 29.79in /  1008.7hPa Calm     91% 0.00in /  0mm 0.0 W/m2
23:39 63.1 °F /  17.3 °C 60.4 °F /  15.8 °C 29.79in /  1008.7hPa Calm     91% 0.00in /  0mm 0.0 W/m2
23:44 63.1 °F /  17.3 °C 60.8 °F /  16 °C 29.80in /  1009hPa Calm     92% 0.00in /  0mm 0.0 W/m2
23:49 63.1 °F /  17.3 °C 60.4 °F /  15.8 °C 29.80in /  1009hPa Calm   1.0mph /  1.6km/h 91% 0.00in /  0mm 0.0 W/m2
23:54 63.1 °F /  17.3 °C 60.4 °F /  15.8 °C 29.80in /  1009hPa Calm   2.0mph /  3.2km/h 91% 0.00in /  0mm 0.0 W/m2
23:59 63.1 °F /  17.3 °C 60.4 °F /  15.8 °C 29.80in /  1009hPa Calm   3.0mph /  4.8km/h 91% 0.01in /  0.25mm 0.0 W/m2
Olympia, Windhoek, Namibia
Compliments of Weather Underground - 3.25 mb